createdAt,value
2019-03-30T00:01:56.863Z,30.80
2019-03-30T00:04:25.483Z,27.57
2019-03-30T00:06:54.214Z,29.27
2019-03-30T00:09:22.915Z,32.53
2019-03-30T00:11:51.595Z,27.33
2019-03-30T00:14:20.310Z,34.20
2019-03-30T00:16:48.963Z,28.37
2019-03-30T00:19:17.579Z,28.17
2019-03-30T00:21:46.258Z,29.30
2019-03-30T00:24:14.898Z,34.67
2019-03-30T00:26:43.611Z,31.13
2019-03-30T00:29:12.258Z,30.57
2019-03-30T00:31:40.883Z,30.40
2019-03-30T00:34:09.612Z,29.93
2019-03-30T00:36:38.369Z,25.87
2019-03-30T00:39:07.641Z,28.37
2019-03-30T00:41:36.404Z,32.38
2019-03-30T00:44:05.146Z,26.57
2019-03-30T00:46:33.863Z,27.00
2019-03-30T00:49:02.562Z,29.57
2019-03-30T00:51:31.274Z,26.90
2019-03-30T00:53:59.984Z,26.27
2019-03-30T00:56:28.625Z,27.13
2019-03-30T00:58:57.406Z,25.97
2019-03-30T01:01:26.118Z,27.93
2019-03-30T01:03:54.876Z,25.07
2019-03-30T01:06:23.595Z,26.13
2019-03-30T01:08:52.301Z,26.43
2019-03-30T01:11:20.962Z,24.03
2019-03-30T01:13:50.034Z,25.80
2019-03-30T01:16:18.666Z,28.37
2019-03-30T01:18:47.367Z,25.73
2019-03-30T01:21:16.009Z,27.50
2019-03-30T01:23:44.660Z,24.93
2019-03-30T01:26:13.418Z,23.57
2019-03-30T01:28:42.092Z,25.03
2019-03-30T01:31:10.734Z,24.27
2019-03-30T01:33:39.371Z,23.33
2019-03-30T01:36:08.149Z,25.30
2019-03-30T01:38:36.842Z,25.07
2019-03-30T01:41:05.559Z,24.53
2019-03-30T01:43:34.194Z,23.43
2019-03-30T01:46:02.955Z,25.97
2019-03-30T01:48:31.663Z,27.17
2019-03-30T01:51:00.290Z,25.97
2019-03-30T01:53:29.016Z,27.47
2019-03-30T01:55:57.641Z,26.07
2019-03-30T01:58:26.431Z,26.20
2019-03-30T02:00:55.142Z,26.30
2019-03-30T02:03:23.775Z,27.83
2019-03-30T02:05:52.486Z,25.03
2019-03-30T02:08:21.126Z,24.43
2019-03-30T02:10:49.760Z,25.37
2019-03-30T02:13:18.477Z,29.17
2019-03-30T02:15:47.123Z,27.13
2019-03-30T02:18:15.826Z,25.80
2019-03-30T02:20:44.914Z,23.53
2019-03-30T02:23:13.662Z,24.33
2019-03-30T02:25:42.457Z,25.03
2019-03-30T02:28:11.199Z,28.43
2019-03-30T02:30:39.974Z,27.40
2019-03-30T02:33:08.648Z,26.60
2019-03-30T02:35:37.365Z,23.90
2019-03-30T02:38:06.081Z,27.00
2019-03-30T02:40:34.787Z,23.47
2019-03-30T02:43:03.514Z,21.53
2019-03-30T02:45:32.237Z,27.53
2019-03-30T02:48:00.990Z,26.57
2019-03-30T02:50:29.734Z,27.20
2019-03-30T02:52:58.452Z,27.70
2019-03-30T02:55:27.079Z,29.63
2019-03-30T02:57:55.885Z,26.20
2019-03-30T03:00:24.490Z,23.43
2019-03-30T03:02:53.267Z,27.73
2019-03-30T03:05:21.990Z,24.27
2019-03-30T03:07:50.611Z,24.10
2019-03-30T03:10:19.334Z,25.50
2019-03-30T03:12:48.043Z,23.90
2019-03-30T03:15:16.758Z,26.07
2019-03-30T03:17:45.407Z,26.90
2019-03-30T03:20:14.302Z,23.60
2019-03-30T03:22:42.980Z,24.63
2019-03-30T03:25:11.614Z,24.13
2019-03-30T03:27:40.337Z,25.40
2019-03-30T03:30:09.535Z,28.97
2019-03-30T03:32:38.324Z,25.47
2019-03-30T03:35:07.275Z,23.73
2019-03-30T03:37:44.459Z,26.60
2019-03-30T03:40:06.998Z,29.13
2019-03-30T03:42:35.749Z,24.30
2019-03-30T03:45:05.210Z,25.70
2019-03-30T03:47:33.913Z,29.03
2019-03-30T03:50:02.618Z,24.17
2019-03-30T03:52:31.467Z,24.50
2019-03-30T03:55:00.566Z,25.70
2019-03-30T03:57:30.842Z,25.77
2019-03-30T04:00:01.239Z,26.27
2019-03-30T04:02:33.675Z,24.57
2019-03-30T04:05:02.788Z,27.43
2019-03-30T04:07:32.959Z,31.63
2019-03-30T04:10:03.127Z,24.60
2019-03-30T04:12:33.375Z,25.73
2019-03-30T04:15:03.570Z,27.60
2019-03-30T04:17:32.361Z,26.97
2019-03-30T04:20:00.992Z,23.97
2019-03-30T04:22:29.711Z,29.40
2019-03-30T04:24:58.362Z,27.70
2019-03-30T04:27:26.992Z,28.47
2019-03-30T04:29:55.651Z,27.73
2019-03-30T04:32:24.299Z,30.47
2019-03-30T04:34:52.979Z,29.70
2019-03-30T04:37:21.735Z,28.67
2019-03-30T04:39:50.411Z,28.30
2019-03-30T04:42:20.358Z,25.70
2019-03-30T04:44:49.034Z,28.67
2019-03-30T04:47:17.757Z,27.67
2019-03-30T04:49:46.379Z,27.73
2019-03-30T04:52:15.047Z,27.60
2019-03-30T04:54:43.685Z,24.83
2019-03-30T04:57:12.322Z,26.83
2019-03-30T04:59:40.950Z,30.23
2019-03-30T05:02:09.792Z,25.60
2019-03-30T05:04:38.576Z,28.97
2019-03-30T05:07:07.238Z,30.13
2019-03-30T05:09:35.930Z,28.57
2019-03-30T05:12:04.554Z,25.60
2019-03-30T05:14:33.294Z,25.87
2019-03-30T05:17:01.947Z,29.23
2019-03-30T05:19:30.575Z,27.67
2019-03-30T05:22:11.440Z,25.40
2019-03-30T05:24:29.882Z,28.37
2019-03-30T05:26:58.511Z,32.23
2019-03-30T05:29:27.255Z,28.97
2019-03-30T05:31:55.987Z,27.87
2019-03-30T05:34:24.691Z,31.23
2019-03-30T05:36:53.359Z,31.53
2019-03-30T05:39:21.982Z,28.33
2019-03-30T05:41:50.651Z,29.03
2019-03-30T05:44:19.330Z,28.67
2019-03-30T05:46:47.946Z,26.20
2019-03-30T05:49:16.566Z,24.33
2019-03-30T05:51:45.225Z,25.70
2019-03-30T05:54:13.951Z,27.97
2019-03-30T05:56:42.616Z,29.47
2019-03-30T05:59:11.277Z,26.27
2019-03-30T06:01:40.003Z,30.67
2019-03-30T06:04:08.777Z,27.50
2019-03-30T06:06:37.482Z,29.47
2019-03-30T06:09:06.711Z,28.20
2019-03-30T06:11:35.346Z,26.77
2019-03-30T06:14:04.142Z,23.80
2019-03-30T06:16:32.862Z,26.70
2019-03-30T06:19:01.576Z,28.83
2019-03-30T06:21:30.230Z,23.63
2019-03-30T06:23:58.894Z,24.77
2019-03-30T06:26:27.603Z,24.70
2019-03-30T06:28:56.353Z,22.93
2019-03-30T06:31:25.097Z,24.47
2019-03-30T06:33:53.739Z,23.03
2019-03-30T06:36:22.379Z,24.40
2019-03-30T06:38:51.199Z,24.20
2019-03-30T06:41:19.847Z,22.47
2019-03-30T06:43:48.790Z,20.47
2019-03-30T06:46:17.468Z,22.97
2019-03-30T06:48:46.119Z,23.77
2019-03-30T06:51:14.947Z,19.43
2019-03-30T06:53:43.579Z,21.70
2019-03-30T06:56:12.546Z,21.10
2019-03-30T06:58:41.277Z,20.60
2019-03-30T07:01:10.092Z,21.40
2019-03-30T07:03:38.816Z,18.43
2019-03-30T07:06:07.939Z,17.60
2019-03-30T07:08:37.258Z,19.07
2019-03-30T07:11:20.227Z,16.50
2019-03-30T07:13:38.694Z,17.10
2019-03-30T07:16:07.406Z,19.70
2019-03-30T07:18:37.615Z,16.97
2019-03-30T07:21:06.345Z,18.13
2019-03-30T07:23:34.991Z,20.07
2019-03-30T07:26:03.747Z,17.20
2019-03-30T07:28:32.412Z,20.47
2019-03-30T07:31:01.130Z,19.20
2019-03-30T07:33:29.863Z,17.10
2019-03-30T07:35:58.587Z,16.47
2019-03-30T07:38:27.231Z,19.27
2019-03-30T07:40:55.990Z,20.93
2019-03-30T07:43:24.635Z,22.07
2019-03-30T07:45:53.347Z,17.67
2019-03-30T07:48:22.060Z,18.00
2019-03-30T07:50:50.715Z,17.33
2019-03-30T07:53:26.390Z,21.73
2019-03-30T07:55:49.854Z,17.53
2019-03-30T07:58:18.486Z,19.03
2019-03-30T08:00:47.445Z,17.03
2019-03-30T08:03:16.090Z,20.00
2019-03-30T08:05:44.796Z,23.17
2019-03-30T08:08:13.530Z,16.93
2019-03-30T08:10:42.266Z,15.90
2019-03-30T08:13:11.043Z,19.23
2019-03-30T08:15:39.856Z,16.67
2019-03-30T08:18:08.582Z,15.80
2019-03-30T08:20:37.370Z,22.20
2019-03-30T08:23:06.207Z,20.67
2019-03-30T08:25:35.125Z,18.47
2019-03-30T08:28:03.898Z,16.60
2019-03-30T08:30:32.662Z,17.20
2019-03-30T08:33:01.332Z,17.70
2019-03-30T08:35:30.082Z,19.87
2019-03-30T08:37:58.859Z,19.97
2019-03-30T08:40:27.720Z,19.87
2019-03-30T08:42:56.590Z,20.13
2019-03-30T08:45:25.325Z,18.73
2019-03-30T08:47:54.119Z,18.97
2019-03-30T08:50:22.894Z,19.10
2019-03-30T08:52:51.611Z,22.97
2019-03-30T08:55:20.502Z,20.73
2019-03-30T08:57:49.157Z,19.70
2019-03-30T09:00:21.359Z,17.60
2019-03-30T09:02:50.077Z,15.13
2019-03-30T09:05:18.746Z,15.73
2019-03-30T09:07:47.715Z,17.43
2019-03-30T09:10:16.505Z,15.87
2019-03-30T09:12:45.159Z,16.90
2019-03-30T09:15:14.078Z,18.13
2019-03-30T09:17:45.095Z,16.07
2019-03-30T09:20:15.931Z,17.43
2019-03-30T09:22:51.994Z,18.67
2019-03-30T09:25:22.636Z,17.80
2019-03-30T09:27:53.537Z,15.27
2019-03-30T09:30:22.460Z,17.73
2019-03-30T09:33:00.550Z,17.67
2019-03-30T09:35:32.541Z,16.33
2019-03-30T09:38:01.628Z,16.60
2019-03-30T09:40:30.420Z,17.30
2019-03-30T09:42:59.275Z,15.93
2019-03-30T09:45:28.082Z,13.73
2019-03-30T09:47:56.778Z,13.73
2019-03-30T09:50:25.496Z,14.20
2019-03-30T09:52:54.282Z,14.50
2019-03-30T09:55:23.159Z,17.40
2019-03-30T09:57:59.066Z,13.57
2019-03-30T10:00:27.799Z,14.93
2019-03-30T10:03:06.572Z,14.07
2019-03-30T10:05:35.603Z,18.93
2019-03-30T10:08:04.666Z,14.20
2019-03-30T10:10:33.392Z,14.80
2019-03-30T10:13:04.315Z,12.60
2019-03-30T10:15:33.032Z,13.23
2019-03-30T10:18:01.759Z,11.53
2019-03-30T10:20:30.502Z,15.03
2019-03-30T10:22:59.232Z,15.07
2019-03-30T10:25:27.892Z,12.97
2019-03-30T10:27:56.601Z,13.67
2019-03-30T10:30:44.866Z,17.77
2019-03-30T10:33:33.573Z,10.80
2019-03-30T10:36:21.645Z,16.03
2019-03-30T10:39:08.339Z,14.30
2019-03-30T10:41:39.242Z,13.67
2019-03-30T10:44:07.976Z,13.43
2019-03-30T10:46:36.726Z,11.70
2019-03-30T10:49:05.474Z,11.80
2019-03-30T10:51:34.166Z,13.77
2019-03-30T10:54:04.499Z,14.17
2019-03-30T10:56:33.183Z,16.27
2019-03-30T10:59:04.127Z,12.37
2019-03-30T11:01:34.070Z,17.23
2019-03-30T11:04:02.835Z,16.23
2019-03-30T11:06:31.531Z,11.27
2019-03-30T11:09:00.306Z,14.67
2019-03-30T11:11:30.693Z,22.53
2019-03-30T11:13:59.710Z,19.00
2019-03-30T11:16:28.703Z,18.47
2019-03-30T11:18:57.831Z,17.70
2019-03-30T11:21:26.574Z,15.90
2019-03-30T11:23:55.426Z,17.63
2019-03-30T11:26:24.286Z,17.57
2019-03-30T11:28:52.919Z,17.90
2019-03-30T11:31:22.687Z,14.87
2019-03-30T11:33:51.339Z,17.73
2019-03-30T11:36:25.962Z,15.23
2019-03-30T11:38:54.678Z,15.90
2019-03-30T11:41:24.941Z,13.23
2019-03-30T11:43:55.510Z,14.43
2019-03-30T11:46:24.298Z,13.73
2019-03-30T11:48:52.998Z,17.53
2019-03-30T11:51:26.246Z,15.20
2019-03-30T11:53:54.974Z,19.13
2019-03-30T11:56:23.619Z,19.37
2019-03-30T11:58:53.482Z,17.33
2019-03-30T12:01:22.133Z,15.37
2019-03-30T12:03:50.983Z,18.20
2019-03-30T12:06:20.775Z,18.50
2019-03-30T12:08:49.486Z,19.07
2019-03-30T12:11:18.194Z,19.27
2019-03-30T12:13:46.890Z,15.37
2019-03-30T12:16:15.602Z,18.13
2019-03-30T12:18:44.384Z,19.27
2019-03-30T12:21:14.157Z,15.63
2019-03-30T12:23:42.966Z,17.23
2019-03-30T12:26:15.115Z,13.77
2019-03-30T12:28:43.800Z,14.10
2019-03-30T12:31:12.605Z,13.00
2019-03-30T12:33:44.093Z,12.67
2019-03-30T12:36:12.899Z,13.10
2019-03-30T12:38:41.674Z,11.73
2019-03-30T12:41:10.666Z,14.43
2019-03-30T12:43:39.470Z,12.37
2019-03-30T12:46:08.370Z,13.67
2019-03-30T12:48:40.333Z,15.10
2019-03-30T12:51:09.145Z,14.07
2019-03-30T12:53:49.532Z,14.90
2019-03-30T12:56:09.087Z,14.43
2019-03-30T12:58:42.158Z,13.80
2019-03-30T13:03:46.804Z,12.80
2019-03-30T13:06:15.613Z,12.07
2019-03-30T13:08:44.226Z,12.30
2019-03-30T13:11:14.039Z,14.97
2019-03-30T13:13:42.838Z,17.80
2019-03-30T13:16:16.485Z,14.40
2019-03-30T13:18:49.773Z,11.53
2019-03-30T13:21:20.605Z,13.47
2019-03-30T13:23:58.935Z,17.70
2019-03-30T13:26:31.794Z,13.93
2019-03-30T13:29:00.622Z,15.73
2019-03-30T13:31:32.523Z,12.17
2019-03-30T13:34:01.794Z,11.67
2019-03-30T13:36:42.755Z,11.77
2019-03-30T13:39:11.567Z,14.20
2019-03-30T13:41:40.309Z,12.93
2019-03-30T13:44:10.571Z,13.67
2019-03-30T13:46:40.163Z,11.93
2019-03-30T13:49:08.891Z,12.50
2019-03-30T13:51:37.706Z,13.10
2019-03-30T13:54:06.503Z,12.97
2019-03-30T13:56:37.785Z,12.10
2019-03-30T13:59:06.917Z,11.53
2019-03-30T14:01:38.899Z,13.00
2019-03-30T14:04:07.598Z,13.33
2019-03-30T14:06:36.323Z,9.43
2019-03-30T14:09:06.498Z,12.07
2019-03-30T14:11:36.439Z,11.80
2019-03-30T14:14:05.379Z,12.47
2019-03-30T14:16:34.121Z,12.97
2019-03-30T14:19:06.025Z,10.13
2019-03-30T14:21:40.462Z,10.57
2019-03-30T14:24:14.459Z,11.20
2019-03-30T14:26:43.839Z,12.77
2019-03-30T14:29:12.496Z,13.60
2019-03-30T14:31:42.202Z,11.70
2019-03-30T14:34:10.879Z,10.13
2019-03-30T14:36:41.401Z,8.67
2019-03-30T14:39:12.268Z,12.20
2019-03-30T14:41:42.155Z,12.17
2019-03-30T14:44:13.419Z,11.03
2019-03-30T14:46:43.107Z,10.07
2019-03-30T14:49:12.380Z,11.40
2019-03-30T14:51:41.026Z,15.20
2019-03-30T14:54:10.875Z,10.97
2019-03-30T14:56:45.705Z,13.10
2019-03-30T14:59:14.260Z,13.27
2019-03-30T15:01:43.830Z,13.47
2019-03-30T15:04:12.762Z,13.50
2019-03-30T15:06:53.418Z,17.67
2019-03-30T15:09:22.124Z,15.73
2019-03-30T15:11:52.880Z,14.07
2019-03-30T15:14:36.992Z,14.10
2019-03-30T15:17:06.294Z,12.87
2019-03-30T15:19:35.028Z,12.63
2019-03-30T15:22:10.013Z,15.80
2019-03-30T15:24:42.970Z,13.00
2019-03-30T15:27:11.753Z,14.43
2019-03-30T15:29:41.246Z,13.77
2019-03-30T15:32:11.959Z,14.47
2019-03-30T15:34:40.606Z,14.60
2019-03-30T15:37:11.483Z,13.53
2019-03-30T15:39:40.301Z,13.90
2019-03-30T15:42:08.996Z,13.97
2019-03-30T15:44:37.824Z,12.83
2019-03-30T15:47:06.611Z,14.90
2019-03-30T15:49:35.498Z,15.97
2019-03-30T15:52:13.804Z,14.80
2019-03-30T15:54:37.310Z,13.83
2019-03-30T15:57:13.948Z,14.13
2019-03-30T15:59:35.871Z,16.03
2019-03-30T16:02:04.693Z,14.17
2019-03-30T16:04:33.542Z,13.00
2019-03-30T16:07:02.367Z,13.50
2019-03-30T16:09:32.103Z,17.53
2019-03-30T16:12:00.758Z,17.40
2019-03-30T16:14:29.566Z,16.83
2019-03-30T16:16:58.504Z,12.90
2019-03-30T16:19:27.230Z,12.80
2019-03-30T16:21:55.914Z,14.38
2019-03-30T16:24:25.687Z,14.13
2019-03-30T16:26:54.403Z,14.93
2019-03-30T16:29:23.150Z,16.53
2019-03-30T16:31:53.330Z,14.20
2019-03-30T16:34:26.690Z,16.97
2019-03-30T16:36:56.535Z,15.60
2019-03-30T16:39:25.502Z,19.60
2019-03-30T16:41:54.225Z,18.87
2019-03-30T16:44:23.253Z,14.37
2019-03-30T16:46:52.182Z,14.10
2019-03-30T16:49:20.933Z,15.00
2019-03-30T16:51:49.680Z,15.20
2019-03-30T16:54:18.475Z,15.27
2019-03-30T16:56:47.179Z,13.67
2019-03-30T16:59:15.968Z,14.23
2019-03-30T17:01:46.315Z,11.73
2019-03-30T17:04:15.038Z,17.47
2019-03-30T17:06:43.927Z,12.53
2019-03-30T17:09:12.638Z,13.40
2019-03-30T17:11:41.394Z,14.83
2019-03-30T17:14:10.125Z,13.03
2019-03-30T17:16:38.754Z,13.93
2019-03-30T17:19:07.475Z,11.70
2019-03-30T17:21:36.214Z,13.47
2019-03-30T17:24:05.458Z,11.67
2019-03-30T17:26:34.092Z,15.53
2019-03-30T17:29:02.820Z,12.23
2019-03-30T17:31:31.464Z,13.07
2019-03-30T17:34:00.179Z,13.00
2019-03-30T17:36:28.863Z,12.27
2019-03-30T17:38:57.483Z,12.30
2019-03-30T17:41:26.314Z,12.63
2019-03-30T17:43:55.038Z,14.67
2019-03-30T17:46:23.710Z,13.70
2019-03-30T17:48:52.418Z,15.03
2019-03-30T17:51:21.054Z,15.33
2019-03-30T17:53:49.722Z,19.67
2019-03-30T17:56:18.438Z,15.60
2019-03-30T17:58:47.086Z,13.90
2019-03-30T18:01:16.039Z,12.00
2019-03-30T18:03:44.710Z,11.70
2019-03-30T18:06:13.354Z,13.17
2019-03-30T18:08:42.171Z,12.47
2019-03-30T18:11:10.805Z,11.77
2019-03-30T18:13:39.503Z,13.20
2019-03-30T18:16:08.274Z,9.77
2019-03-30T18:18:37.102Z,12.87
2019-03-30T18:21:05.743Z,14.33
2019-03-30T18:23:34.402Z,15.60
2019-03-30T18:26:03.033Z,14.03
2019-03-30T18:28:31.701Z,13.03
2019-03-30T18:31:00.419Z,12.63
2019-03-30T18:33:29.126Z,13.13
2019-03-30T18:35:58.230Z,11.97
2019-03-30T18:38:26.994Z,12.00
2019-03-30T18:40:55.711Z,16.03
2019-03-30T18:43:25.482Z,13.50
2019-03-30T18:45:54.384Z,13.37
2019-03-30T18:48:23.067Z,13.77
2019-03-30T18:50:51.988Z,11.63
2019-03-30T18:53:20.732Z,14.97
2019-03-30T18:55:49.378Z,11.90
2019-03-30T18:58:18.091Z,12.87
2019-03-30T19:00:46.903Z,12.97
2019-03-30T19:03:15.590Z,16.13
2019-03-30T19:05:44.362Z,17.20
2019-03-30T19:08:13.125Z,13.90
2019-03-30T19:10:41.747Z,13.40
2019-03-30T19:13:10.454Z,13.17
2019-03-30T19:15:39.193Z,15.32
2019-03-30T19:18:07.986Z,13.60
2019-03-30T19:20:36.690Z,15.67
2019-03-30T19:23:05.431Z,14.37
2019-03-30T19:25:34.205Z,14.67
2019-03-30T19:28:02.916Z,15.50
2019-03-30T19:30:31.665Z,16.47
2019-03-30T19:33:00.291Z,16.47
2019-03-30T19:35:29.003Z,13.63
2019-03-30T19:37:57.648Z,22.50
2019-03-30T19:40:26.371Z,14.97
2019-03-30T19:42:55.058Z,17.90
2019-03-30T19:45:23.702Z,15.13
2019-03-30T19:47:52.346Z,15.10
2019-03-30T19:50:21.051Z,16.00
2019-03-30T19:52:49.768Z,16.83
2019-03-30T19:55:18.488Z,16.57
2019-03-30T19:57:47.191Z,17.50
2019-03-30T20:00:16.114Z,18.65
2019-03-30T20:02:45.054Z,17.17
2019-03-30T20:05:13.860Z,16.53
2019-03-30T20:07:42.679Z,16.17
2019-03-30T20:10:11.690Z,18.20
2019-03-30T20:12:40.399Z,16.00
2019-03-30T20:15:09.162Z,17.53
2019-03-30T20:17:38.672Z,15.20
2019-03-30T20:20:07.595Z,17.27
2019-03-30T20:22:36.367Z,18.60
2019-03-30T20:25:05.396Z,17.27
2019-03-30T20:27:34.046Z,18.30
2019-03-30T20:30:02.767Z,18.67
2019-03-30T20:32:31.424Z,19.67
2019-03-30T20:35:00.257Z,15.33
2019-03-30T20:37:29.117Z,15.57
2019-03-30T20:39:57.761Z,18.07
2019-03-30T20:42:26.454Z,18.77
2019-03-30T20:44:55.087Z,20.47
2019-03-30T20:47:23.819Z,21.57
2019-03-30T20:49:52.463Z,21.10
2019-03-30T20:52:21.194Z,21.90
2019-03-30T20:54:49.948Z,24.60
2019-03-30T20:57:18.674Z,24.60
2019-03-30T20:59:47.480Z,25.97
2019-03-30T21:02:16.186Z,26.13
2019-03-30T21:04:44.829Z,27.33
2019-03-30T21:07:13.598Z,28.83
2019-03-30T21:09:42.314Z,26.33
2019-03-30T21:12:11.252Z,29.40
2019-03-30T21:14:39.902Z,29.53
2019-03-30T21:17:08.706Z,27.80
2019-03-30T21:19:37.434Z,31.77
2019-03-30T21:22:06.142Z,28.80
2019-03-30T21:24:34.847Z,32.07
2019-03-30T21:27:03.599Z,32.47
2019-03-30T21:29:32.314Z,30.90
2019-03-30T21:32:01.228Z,31.13
2019-03-30T21:34:29.962Z,32.23
2019-03-30T21:36:58.672Z,34.67
2019-03-30T21:39:27.414Z,29.13
2019-03-30T21:41:56.176Z,32.10
2019-03-30T21:44:24.890Z,27.93
2019-03-30T21:46:53.532Z,31.50
2019-03-30T21:49:22.159Z,31.17
2019-03-30T21:51:50.795Z,34.57
2019-03-30T21:54:19.461Z,32.33
2019-03-30T21:56:48.091Z,30.93
2019-03-30T21:59:16.889Z,33.00
2019-03-30T22:01:45.626Z,30.17
2019-03-30T22:04:14.354Z,32.53
2019-03-30T22:06:43.068Z,29.90
2019-03-30T22:09:11.736Z,34.47
2019-03-30T22:11:40.453Z,28.80
2019-03-30T22:14:09.074Z,34.83
2019-03-30T22:16:40.540Z,30.83
2019-03-30T22:19:09.355Z,32.17
2019-03-30T22:21:38.175Z,32.30
2019-03-30T22:24:07.077Z,36.00
2019-03-30T22:26:41.559Z,34.00
2019-03-30T22:29:10.199Z,31.40
2019-03-30T22:31:38.864Z,38.13
2019-03-30T22:34:07.575Z,35.77
2019-03-30T22:36:36.247Z,33.07
2019-03-30T22:39:06.055Z,30.53
2019-03-30T22:41:34.932Z,34.33
2019-03-30T22:44:03.710Z,28.70
2019-03-30T22:46:32.416Z,33.23
2019-03-30T22:49:09.030Z,31.87
2019-03-30T22:51:37.755Z,33.87
2019-03-30T22:54:06.430Z,34.23
2019-03-30T22:56:35.155Z,35.70
2019-03-30T22:59:03.872Z,34.70
2019-03-30T23:01:32.750Z,35.83
2019-03-30T23:04:01.431Z,35.90
2019-03-30T23:06:31.107Z,33.80
2019-03-30T23:08:59.750Z,33.20
2019-03-30T23:11:28.422Z,34.97
2019-03-30T23:13:57.172Z,35.73
2019-03-30T23:16:25.798Z,32.07
2019-03-30T23:18:54.567Z,32.53
2019-03-30T23:21:23.263Z,33.37
2019-03-30T23:23:51.958Z,35.37
2019-03-30T23:26:20.686Z,39.37
2019-03-30T23:28:49.386Z,35.17
2019-03-30T23:31:18.082Z,36.73
2019-03-30T23:33:46.838Z,34.87
2019-03-30T23:36:15.543Z,37.40
2019-03-30T23:38:44.282Z,41.63
2019-03-30T23:41:12.922Z,36.73
2019-03-30T23:43:41.569Z,35.33
2019-03-30T23:46:25.281Z,35.63
2019-03-30T23:48:54.034Z,38.98
2019-03-30T23:51:22.745Z,39.83
2019-03-30T23:53:51.404Z,36.53
2019-03-30T23:56:20.363Z,38.87
2019-03-30T23:58:49.007Z,37.67
